sensor_id;sensor_type;location;lat;lon;timestamp;P1;durP1;ratioP1;P2;durP2;ratioP2
5010;SDS011;2524;54.364;10.072;2024-01-11T00:01:03;16.93;;;13.40;;
5010;SDS011;2524;54.364;10.072;2024-01-11T00:03:29;12.30;;;10.13;;
5010;SDS011;2524;54.364;10.072;2024-01-11T00:05:54;9.80;;;8.73;;
5010;SDS011;2524;54.364;10.072;2024-01-11T00:08:20;9.87;;;8.87;;
5010;SDS011;2524;54.364;10.072;2024-01-11T00:10:45;12.30;;;9.60;;
5010;SDS011;2524;54.364;10.072;2024-01-11T00:13:11;11.07;;;9.60;;
5010;SDS011;2524;54.364;10.072;2024-01-11T00:15:37;9.50;;;8.50;;
5010;SDS011;2524;54.364;10.072;2024-01-11T00:18:02;9.57;;;8.57;;
5010;SDS011;2524;54.364;10.072;2024-01-11T00:20:29;8.00;;;7.20;;
5010;SDS011;2524;54.364;10.072;2024-01-11T00:22:54;8.43;;;7.63;;
5010;SDS011;2524;54.364;10.072;2024-01-11T00:25:20;8.90;;;8.10;;
5010;SDS011;2524;54.364;10.072;2024-01-11T00:27:45;7.90;;;7.20;;
5010;SDS011;2524;54.364;10.072;2024-01-11T00:30:11;8.73;;;7.90;;
5010;SDS011;2524;54.364;10.072;2024-01-11T00:32:37;7.70;;;7.00;;
5010;SDS011;2524;54.364;10.072;2024-01-11T00:35:02;7.47;;;6.77;;
5010;SDS011;2524;54.364;10.072;2024-01-11T00:37:28;8.07;;;7.37;;
5010;SDS011;2524;54.364;10.072;2024-01-11T00:39:54;7.80;;;7.10;;
5010;SDS011;2524;54.364;10.072;2024-01-11T00:42:19;7.37;;;6.77;;
5010;SDS011;2524;54.364;10.072;2024-01-11T00:44:45;6.57;;;6.07;;
5010;SDS011;2524;54.364;10.072;2024-01-11T00:47:10;5.93;;;5.53;;
5010;SDS011;2524;54.364;10.072;2024-01-11T00:49:36;5.77;;;5.37;;
5010;SDS011;2524;54.364;10.072;2024-01-11T00:52:01;4.73;;;4.43;;
5010;SDS011;2524;54.364;10.072;2024-01-11T00:54:27;4.60;;;4.40;;
5010;SDS011;2524;54.364;10.072;2024-01-11T00:56:53;3.97;;;3.77;;
5010;SDS011;2524;54.364;10.072;2024-01-11T00:59:18;4.83;;;4.53;;
5010;SDS011;2524;54.364;10.072;2024-01-11T01:01:47;4.50;;;4.30;;
5010;SDS011;2524;54.364;10.072;2024-01-11T01:04:13;4.97;;;4.63;;
5010;SDS011;2524;54.364;10.072;2024-01-11T01:06:40;5.70;;;5.30;;
5010;SDS011;2524;54.364;10.072;2024-01-11T01:09:06;5.70;;;5.20;;
5010;SDS011;2524;54.364;10.072;2024-01-11T01:11:32;6.47;;;5.97;;
5010;SDS011;2524;54.364;10.072;2024-01-11T01:13:57;6.00;;;5.60;;
5010;SDS011;2524;54.364;10.072;2024-01-11T01:16:23;4.03;;;3.83;;
5010;SDS011;2524;54.364;10.072;2024-01-11T01:18:48;4.93;;;4.53;;
5010;SDS011;2524;54.364;10.072;2024-01-11T01:21:14;5.00;;;4.70;;
5010;SDS011;2524;54.364;10.072;2024-01-11T01:23:39;5.67;;;5.27;;
5010;SDS011;2524;54.364;10.072;2024-01-11T01:26:06;8.83;;;8.03;;
5010;SDS011;2524;54.364;10.072;2024-01-11T01:28:32;6.30;;;5.77;;
5010;SDS011;2524;54.364;10.072;2024-01-11T01:30:57;4.80;;;4.50;;
5010;SDS011;2524;54.364;10.072;2024-01-11T01:33:23;8.00;;;7.30;;
5010;SDS011;2524;54.364;10.072;2024-01-11T01:35:48;6.30;;;5.87;;
5010;SDS011;2524;54.364;10.072;2024-01-11T01:38:14;5.40;;;5.00;;
5010;SDS011;2524;54.364;10.072;2024-01-11T01:40:40;8.50;;;7.77;;
5010;SDS011;2524;54.364;10.072;2024-01-11T01:43:09;6.63;;;6.13;;
5010;SDS011;2524;54.364;10.072;2024-01-11T01:45:35;5.80;;;5.40;;
5010;SDS011;2524;54.364;10.072;2024-01-11T01:48:01;9.23;;;8.10;;
5010;SDS011;2524;54.364;10.072;2024-01-11T01:50:27;8.47;;;7.73;;
5010;SDS011;2524;54.364;10.072;2024-01-11T01:52:54;6.93;;;6.43;;
5010;SDS011;2524;54.364;10.072;2024-01-11T01:55:20;7.50;;;6.90;;
5010;SDS011;2524;54.364;10.072;2024-01-11T01:57:47;7.03;;;6.43;;
5010;SDS011;2524;54.364;10.072;2024-01-11T02:00:15;9.00;;;8.20;;
5010;SDS011;2524;54.364;10.072;2024-01-11T02:02:42;6.40;;;5.90;;
5010;SDS011;2524;54.364;10.072;2024-01-11T02:05:09;5.90;;;5.50;;
5010;SDS011;2524;54.364;10.072;2024-01-11T02:07:36;5.07;;;4.67;;
5010;SDS011;2524;54.364;10.072;2024-01-11T02:10:02;6.43;;;5.83;;
5010;SDS011;2524;54.364;10.072;2024-01-11T02:12:28;5.37;;;4.97;;
5010;SDS011;2524;54.364;10.072;2024-01-11T02:14:54;4.50;;;4.20;;
5010;SDS011;2524;54.364;10.072;2024-01-11T02:17:20;5.57;;;5.10;;
5010;SDS011;2524;54.364;10.072;2024-01-11T02:19:46;5.20;;;4.80;;
5010;SDS011;2524;54.364;10.072;2024-01-11T02:22:18;5.20;;;4.90;;
5010;SDS011;2524;54.364;10.072;2024-01-11T02:24:47;5.20;;;4.90;;
5010;SDS011;2524;54.364;10.072;2024-01-11T02:27:13;5.13;;;4.83;;
5010;SDS011;2524;54.364;10.072;2024-01-11T02:29:39;5.33;;;5.00;;
5010;SDS011;2524;54.364;10.072;2024-01-11T02:32:04;4.20;;;4.00;;
5010;SDS011;2524;54.364;10.072;2024-01-11T02:34:31;4.63;;;4.33;;
5010;SDS011;2524;54.364;10.072;2024-01-11T02:36:58;4.37;;;4.10;;
5010;SDS011;2524;54.364;10.072;2024-01-11T02:39:24;8.77;;;7.47;;
5010;SDS011;2524;54.364;10.072;2024-01-11T02:41:52;7.07;;;6.57;;
5010;SDS011;2524;54.364;10.072;2024-01-11T02:44:21;5.60;;;5.27;;
5010;SDS011;2524;54.364;10.072;2024-01-11T02:46:46;5.17;;;4.87;;
5010;SDS011;2524;54.364;10.072;2024-01-11T02:49:12;6.93;;;6.40;;
5010;SDS011;2524;54.364;10.072;2024-01-11T02:51:38;7.47;;;6.87;;
5010;SDS011;2524;54.364;10.072;2024-01-11T02:54:03;5.77;;;5.37;;
5010;SDS011;2524;54.364;10.072;2024-01-11T02:56:29;6.63;;;6.10;;
5010;SDS011;2524;54.364;10.072;2024-01-11T02:58:54;6.00;;;5.60;;
5010;SDS011;2524;54.364;10.072;2024-01-11T03:01:20;4.77;;;4.53;;
5010;SDS011;2524;54.364;10.072;2024-01-11T03:03:46;7.03;;;6.43;;
5010;SDS011;2524;54.364;10.072;2024-01-11T03:06:11;5.43;;;5.03;;
5010;SDS011;2524;54.364;10.072;2024-01-11T03:08:37;4.87;;;4.57;;
5010;SDS011;2524;54.364;10.072;2024-01-11T03:11:02;4.73;;;4.43;;
5010;SDS011;2524;54.364;10.072;2024-01-11T03:13:28;5.10;;;4.80;;
5010;SDS011;2524;54.364;10.072;2024-01-11T03:15:53;5.60;;;5.20;;
5010;SDS011;2524;54.364;10.072;2024-01-11T03:18:19;3.73;;;3.53;;
5010;SDS011;2524;54.364;10.072;2024-01-11T03:20:45;3.80;;;3.60;;
5010;SDS011;2524;54.364;10.072;2024-01-11T03:23:10;4.43;;;4.23;;
5010;SDS011;2524;54.364;10.072;2024-01-11T03:25:36;3.60;;;3.50;;
5010;SDS011;2524;54.364;10.072;2024-01-11T03:28:02;3.47;;;3.37;;
5010;SDS011;2524;54.364;10.072;2024-01-11T03:30:27;3.10;;;3.00;;
5010;SDS011;2524;54.364;10.072;2024-01-11T03:32:53;5.10;;;4.80;;
5010;SDS011;2524;54.364;10.072;2024-01-11T03:35:19;4.20;;;4.00;;
5010;SDS011;2524;54.364;10.072;2024-01-11T03:37:45;4.80;;;4.50;;
5010;SDS011;2524;54.364;10.072;2024-01-11T03:40:11;3.30;;;3.17;;
5010;SDS011;2524;54.364;10.072;2024-01-11T03:42:37;4.80;;;4.50;;
5010;SDS011;2524;54.364;10.072;2024-01-11T03:45:03;3.77;;;3.57;;
5010;SDS011;2524;54.364;10.072;2024-01-11T03:47:29;4.67;;;4.37;;
5010;SDS011;2524;54.364;10.072;2024-01-11T03:49:55;5.80;;;5.37;;
5010;SDS011;2524;54.364;10.072;2024-01-11T03:52:20;5.23;;;4.83;;
5010;SDS011;2524;54.364;10.072;2024-01-11T03:54:46;3.73;;;3.53;;
5010;SDS011;2524;54.364;10.072;2024-01-11T03:57:12;3.80;;;3.57;;
5010;SDS011;2524;54.364;10.072;2024-01-11T03:59:37;3.27;;;3.17;;
5010;SDS011;2524;54.364;10.072;2024-01-11T04:02:03;5.73;;;5.33;;
5010;SDS011;2524;54.364;10.072;2024-01-11T04:04:28;5.73;;;5.33;;
5010;SDS011;2524;54.364;10.072;2024-01-11T04:06:54;5.50;;;5.10;;
5010;SDS011;2524;54.364;10.072;2024-01-11T04:09:20;4.70;;;4.30;;
5010;SDS011;2524;54.364;10.072;2024-01-11T04:11:45;4.33;;;4.03;;
5010;SDS011;2524;54.364;10.072;2024-01-11T04:14:11;4.20;;;4.00;;
5010;SDS011;2524;54.364;10.072;2024-01-11T04:16:40;3.40;;;3.20;;
5010;SDS011;2524;54.364;10.072;2024-01-11T04:19:07;3.40;;;3.30;;
5010;SDS011;2524;54.364;10.072;2024-01-11T04:21:33;3.20;;;3.10;;
5010;SDS011;2524;54.364;10.072;2024-01-11T04:23:59;3.40;;;3.30;;
5010;SDS011;2524;54.364;10.072;2024-01-11T04:26:25;2.90;;;2.80;;
5010;SDS011;2524;54.364;10.072;2024-01-11T04:28:51;2.43;;;2.33;;
5010;SDS011;2524;54.364;10.072;2024-01-11T04:31:17;3.67;;;3.37;;
5010;SDS011;2524;54.364;10.072;2024-01-11T04:33:43;2.80;;;2.70;;
5010;SDS011;2524;54.364;10.072;2024-01-11T04:36:09;3.17;;;3.07;;
5010;SDS011;2524;54.364;10.072;2024-01-11T04:38:35;2.87;;;2.77;;
5010;SDS011;2524;54.364;10.072;2024-01-11T04:41:02;2.23;;;2.23;;
5010;SDS011;2524;54.364;10.072;2024-01-11T04:43:38;2.23;;;2.23;;
5010;SDS011;2524;54.364;10.072;2024-01-11T04:46:17;2.50;;;2.40;;
5010;SDS011;2524;54.364;10.072;2024-01-11T04:48:47;2.10;;;2.00;;
5010;SDS011;2524;54.364;10.072;2024-01-11T04:51:17;3.93;;;3.63;;
5010;SDS011;2524;54.364;10.072;2024-01-11T04:53:43;3.10;;;2.90;;
5010;SDS011;2524;54.364;10.072;2024-01-11T04:56:11;4.23;;;3.93;;
5010;SDS011;2524;54.364;10.072;2024-01-11T04:58:42;3.17;;;2.97;;
5010;SDS011;2524;54.364;10.072;2024-01-11T05:01:12;2.73;;;2.63;;
5010;SDS011;2524;54.364;10.072;2024-01-11T05:03:38;3.30;;;3.10;;
5010;SDS011;2524;54.364;10.072;2024-01-11T05:06:04;1.80;;;1.80;;
5010;SDS011;2524;54.364;10.072;2024-01-11T05:08:30;3.90;;;3.20;;
5010;SDS011;2524;54.364;10.072;2024-01-11T05:10:55;2.60;;;2.47;;
5010;SDS011;2524;54.364;10.072;2024-01-11T05:13:21;2.30;;;2.20;;
5010;SDS011;2524;54.364;10.072;2024-01-11T05:15:47;3.53;;;3.23;;
5010;SDS011;2524;54.364;10.072;2024-01-11T05:18:13;2.30;;;2.20;;
5010;SDS011;2524;54.364;10.072;2024-01-11T05:20:38;2.13;;;2.03;;
5010;SDS011;2524;54.364;10.072;2024-01-11T05:23:05;1.57;;;1.57;;
5010;SDS011;2524;54.364;10.072;2024-01-11T05:25:31;1.60;;;1.60;;
5010;SDS011;2524;54.364;10.072;2024-01-11T05:28:00;1.10;;;1.10;;
5010;SDS011;2524;54.364;10.072;2024-01-11T05:30:26;1.97;;;1.97;;
5010;SDS011;2524;54.364;10.072;2024-01-11T05:32:52;1.60;;;1.60;;
5010;SDS011;2524;54.364;10.072;2024-01-11T05:35:18;1.40;;;1.40;;
5010;SDS011;2524;54.364;10.072;2024-01-11T05:37:44;1.43;;;1.43;;
5010;SDS011;2524;54.364;10.072;2024-01-11T05:40:09;2.13;;;2.03;;
5010;SDS011;2524;54.364;10.072;2024-01-11T05:42:35;1.80;;;1.73;;
5010;SDS011;2524;54.364;10.072;2024-01-11T05:45:02;1.90;;;1.90;;
5010;SDS011;2524;54.364;10.072;2024-01-11T05:47:31;1.90;;;1.83;;
5010;SDS011;2524;54.364;10.072;2024-01-11T05:49:57;2.57;;;2.50;;
5010;SDS011;2524;54.364;10.072;2024-01-11T05:52:22;2.23;;;2.13;;
5010;SDS011;2524;54.364;10.072;2024-01-11T05:54:48;1.80;;;1.80;;
5010;SDS011;2524;54.364;10.072;2024-01-11T05:57:14;1.97;;;1.87;;
5010;SDS011;2524;54.364;10.072;2024-01-11T05:59:45;1.50;;;1.50;;
5010;SDS011;2524;54.364;10.072;2024-01-11T06:02:11;1.97;;;1.87;;
5010;SDS011;2524;54.364;10.072;2024-01-11T06:04:38;1.20;;;1.20;;
5010;SDS011;2524;54.364;10.072;2024-01-11T06:07:04;1.63;;;1.63;;
5010;SDS011;2524;54.364;10.072;2024-01-11T06:09:29;3.33;;;3.13;;
5010;SDS011;2524;54.364;10.072;2024-01-11T06:11:55;2.67;;;2.57;;
5010;SDS011;2524;54.364;10.072;2024-01-11T06:14:20;2.50;;;2.40;;
5010;SDS011;2524;54.364;10.072;2024-01-11T06:16:46;2.40;;;2.30;;
5010;SDS011;2524;54.364;10.072;2024-01-11T06:19:12;1.93;;;1.83;;
5010;SDS011;2524;54.364;10.072;2024-01-11T06:21:37;3.50;;;2.87;;
5010;SDS011;2524;54.364;10.072;2024-01-11T06:24:03;2.10;;;2.00;;
5010;SDS011;2524;54.364;10.072;2024-01-11T06:26:29;2.30;;;2.20;;
5010;SDS011;2524;54.364;10.072;2024-01-11T06:28:55;3.63;;;3.37;;
5010;SDS011;2524;54.364;10.072;2024-01-11T06:31:20;3.83;;;3.43;;
5010;SDS011;2524;54.364;10.072;2024-01-11T06:33:46;3.20;;;3.00;;
5010;SDS011;2524;54.364;10.072;2024-01-11T06:36:12;2.53;;;2.43;;
5010;SDS011;2524;54.364;10.072;2024-01-11T06:38:37;2.10;;;2.10;;
5010;SDS011;2524;54.364;10.072;2024-01-11T06:41:03;3.37;;;3.17;;
5010;SDS011;2524;54.364;10.072;2024-01-11T06:43:28;2.73;;;2.63;;
5010;SDS011;2524;54.364;10.072;2024-01-11T06:45:54;2.07;;;1.97;;
5010;SDS011;2524;54.364;10.072;2024-01-11T06:48:20;2.47;;;2.37;;
5010;SDS011;2524;54.364;10.072;2024-01-11T06:50:45;2.30;;;2.20;;
5010;SDS011;2524;54.364;10.072;2024-01-11T06:53:11;2.27;;;2.17;;
5010;SDS011;2524;54.364;10.072;2024-01-11T06:55:36;2.60;;;2.50;;
5010;SDS011;2524;54.364;10.072;2024-01-11T06:58:02;1.73;;;1.73;;
5010;SDS011;2524;54.364;10.072;2024-01-11T07:00:28;2.43;;;2.33;;
5010;SDS011;2524;54.364;10.072;2024-01-11T07:02:54;1.93;;;1.93;;
5010;SDS011;2524;54.364;10.072;2024-01-11T07:05:19;2.97;;;2.77;;
5010;SDS011;2524;54.364;10.072;2024-01-11T07:07:46;2.40;;;2.30;;
5010;SDS011;2524;54.364;10.072;2024-01-11T07:10:11;2.30;;;2.20;;
5010;SDS011;2524;54.364;10.072;2024-01-11T07:12:37;1.80;;;1.70;;
5010;SDS011;2524;54.364;10.072;2024-01-11T07:15:05;1.77;;;1.67;;
5010;SDS011;2524;54.364;10.072;2024-01-11T07:17:32;1.47;;;1.47;;
5010;SDS011;2524;54.364;10.072;2024-01-11T07:19:58;2.43;;;2.33;;
5010;SDS011;2524;54.364;10.072;2024-01-11T07:22:24;2.30;;;2.20;;
5010;SDS011;2524;54.364;10.072;2024-01-11T07:24:50;2.27;;;2.17;;
5010;SDS011;2524;54.364;10.072;2024-01-11T07:27:15;1.80;;;1.80;;
5010;SDS011;2524;54.364;10.072;2024-01-11T07:29:41;1.80;;;1.80;;
5010;SDS011;2524;54.364;10.072;2024-01-11T07:32:06;1.70;;;1.70;;
5010;SDS011;2524;54.364;10.072;2024-01-11T07:34:32;2.60;;;2.47;;
5010;SDS011;2524;54.364;10.072;2024-01-11T07:36:58;2.27;;;2.20;;
5010;SDS011;2524;54.364;10.072;2024-01-11T07:39:24;2.30;;;2.20;;
5010;SDS011;2524;54.364;10.072;2024-01-11T07:41:49;2.10;;;2.10;;
5010;SDS011;2524;54.364;10.072;2024-01-11T07:44:15;1.43;;;1.43;;
5010;SDS011;2524;54.364;10.072;2024-01-11T07:46:41;2.50;;;2.30;;
5010;SDS011;2524;54.364;10.072;2024-01-11T07:49:07;2.60;;;2.50;;
5010;SDS011;2524;54.364;10.072;2024-01-11T07:51:33;2.60;;;2.50;;
5010;SDS011;2524;54.364;10.072;2024-01-11T07:54:02;2.27;;;2.27;;
5010;SDS011;2524;54.364;10.072;2024-01-11T07:56:28;2.50;;;2.40;;
5010;SDS011;2524;54.364;10.072;2024-01-11T07:58:54;2.33;;;2.33;;
5010;SDS011;2524;54.364;10.072;2024-01-11T08:01:19;1.87;;;1.87;;
5010;SDS011;2524;54.364;10.072;2024-01-11T08:03:45;1.80;;;1.80;;
5010;SDS011;2524;54.364;10.072;2024-01-11T08:06:12;2.70;;;2.50;;
5010;SDS011;2524;54.364;10.072;2024-01-11T08:08:37;3.60;;;3.43;;
5010;SDS011;2524;54.364;10.072;2024-01-11T08:11:09;2.97;;;2.87;;
5010;SDS011;2524;54.364;10.072;2024-01-11T08:13:37;2.53;;;2.43;;
5010;SDS011;2524;54.364;10.072;2024-01-11T08:16:03;3.83;;;3.53;;
5010;SDS011;2524;54.364;10.072;2024-01-11T08:18:32;2.40;;;2.30;;
5010;SDS011;2524;54.364;10.072;2024-01-11T08:20:58;2.57;;;2.47;;
5010;SDS011;2524;54.364;10.072;2024-01-11T08:23:24;2.60;;;2.53;;
5010;SDS011;2524;54.364;10.072;2024-01-11T08:25:49;4.70;;;4.30;;
5010;SDS011;2524;54.364;10.072;2024-01-11T08:28:15;2.97;;;2.83;;
5010;SDS011;2524;54.364;10.072;2024-01-11T08:30:40;4.40;;;4.10;;
5010;SDS011;2524;54.364;10.072;2024-01-11T08:33:07;3.13;;;3.03;;
5010;SDS011;2524;54.364;10.072;2024-01-11T08:35:33;2.57;;;2.47;;
5010;SDS011;2524;54.364;10.072;2024-01-11T08:38:00;1.93;;;1.93;;
5010;SDS011;2524;54.364;10.072;2024-01-11T08:40:26;3.97;;;3.73;;
5010;SDS011;2524;54.364;10.072;2024-01-11T08:42:51;8.70;;;6.80;;
5010;SDS011;2524;54.364;10.072;2024-01-11T08:45:17;6.10;;;5.60;;
5010;SDS011;2524;54.364;10.072;2024-01-11T08:47:46;14.20;;;8.90;;
5010;SDS011;2524;54.364;10.072;2024-01-11T08:50:15;7.47;;;6.60;;
5010;SDS011;2524;54.364;10.072;2024-01-11T08:52:41;6.30;;;5.80;;
5010;SDS011;2524;54.364;10.072;2024-01-11T08:55:07;7.77;;;6.83;;
5010;SDS011;2524;54.364;10.072;2024-01-11T08:57:33;5.60;;;5.03;;
5010;SDS011;2524;54.364;10.072;2024-01-11T09:00:00;5.30;;;4.90;;
5010;SDS011;2524;54.364;10.072;2024-01-11T09:02:31;7.90;;;6.97;;
5010;SDS011;2524;54.364;10.072;2024-01-11T09:04:57;6.73;;;6.10;;
5010;SDS011;2524;54.364;10.072;2024-01-11T09:07:22;6.03;;;5.53;;
5010;SDS011;2524;54.364;10.072;2024-01-11T09:09:48;5.57;;;5.07;;
5010;SDS011;2524;54.364;10.072;2024-01-11T09:12:13;8.90;;;7.73;;
5010;SDS011;2524;54.364;10.072;2024-01-11T09:14:39;7.57;;;6.77;;
5010;SDS011;2524;54.364;10.072;2024-01-11T09:17:04;9.93;;;8.70;;
5010;SDS011;2524;54.364;10.072;2024-01-11T09:19:31;10.93;;;9.30;;
5010;SDS011;2524;54.364;10.072;2024-01-11T09:21:59;8.30;;;7.40;;
5010;SDS011;2524;54.364;10.072;2024-01-11T09:24:24;8.33;;;6.77;;
5010;SDS011;2524;54.364;10.072;2024-01-11T09:26:50;7.80;;;7.10;;
5010;SDS011;2524;54.364;10.072;2024-01-11T09:29:16;6.57;;;5.90;;
5010;SDS011;2524;54.364;10.072;2024-01-11T09:31:41;7.47;;;6.77;;
5010;SDS011;2524;54.364;10.072;2024-01-11T09:34:07;5.97;;;5.50;;
5010;SDS011;2524;54.364;10.072;2024-01-11T09:36:33;6.10;;;5.57;;
5010;SDS011;2524;54.364;10.072;2024-01-11T09:38:59;5.87;;;5.13;;
5010;SDS011;2524;54.364;10.072;2024-01-11T09:41:25;4.60;;;4.20;;
5010;SDS011;2524;54.364;10.072;2024-01-11T09:43:52;4.20;;;3.90;;
5010;SDS011;2524;54.364;10.072;2024-01-11T09:46:22;3.87;;;3.57;;
5010;SDS011;2524;54.364;10.072;2024-01-11T09:48:48;3.70;;;3.50;;
5010;SDS011;2524;54.364;10.072;2024-01-11T09:51:15;3.47;;;3.37;;
5010;SDS011;2524;54.364;10.072;2024-01-11T09:53:41;3.63;;;3.43;;
5010;SDS011;2524;54.364;10.072;2024-01-11T09:56:08;2.90;;;2.80;;
5010;SDS011;2524;54.364;10.072;2024-01-11T09:58:35;2.50;;;2.40;;
5010;SDS011;2524;54.364;10.072;2024-01-11T10:01:04;3.30;;;3.03;;
5010;SDS011;2524;54.364;10.072;2024-01-11T10:03:34;3.17;;;2.97;;
5010;SDS011;2524;54.364;10.072;2024-01-11T10:05:59;3.00;;;2.90;;
5010;SDS011;2524;54.364;10.072;2024-01-11T10:08:27;3.00;;;2.90;;
5010;SDS011;2524;54.364;10.072;2024-01-11T10:10:54;2.33;;;2.33;;
5010;SDS011;2524;54.364;10.072;2024-01-11T10:13:25;2.17;;;2.17;;
5010;SDS011;2524;54.364;10.072;2024-01-11T10:16:05;3.50;;;3.30;;
5010;SDS011;2524;54.364;10.072;2024-01-11T10:18:38;3.27;;;3.07;;
5010;SDS011;2524;54.364;10.072;2024-01-11T10:21:04;3.20;;;3.10;;
5010;SDS011;2524;54.364;10.072;2024-01-11T10:23:33;3.40;;;3.20;;
5010;SDS011;2524;54.364;10.072;2024-01-11T10:25:59;4.03;;;3.83;;
5010;SDS011;2524;54.364;10.072;2024-01-11T10:28:25;2.77;;;2.67;;
5010;SDS011;2524;54.364;10.072;2024-01-11T10:30:52;2.97;;;2.87;;
5010;SDS011;2524;54.364;10.072;2024-01-11T10:33:21;3.03;;;2.93;;
5010;SDS011;2524;54.364;10.072;2024-01-11T10:35:48;3.10;;;3.00;;
5010;SDS011;2524;54.364;10.072;2024-01-11T10:38:16;2.40;;;2.30;;
5010;SDS011;2524;54.364;10.072;2024-01-11T10:40:43;2.80;;;2.70;;
5010;SDS011;2524;54.364;10.072;2024-01-11T10:43:09;3.20;;;3.00;;
5010;SDS011;2524;54.364;10.072;2024-01-11T10:45:36;2.80;;;2.70;;
5010;SDS011;2524;54.364;10.072;2024-01-11T10:48:07;2.03;;;2.00;;
5010;SDS011;2524;54.364;10.072;2024-01-11T10:50:41;2.33;;;2.30;;
5010;SDS011;2524;54.364;10.072;2024-01-11T10:55:57;1.97;;;1.97;;
5010;SDS011;2524;54.364;10.072;2024-01-11T10:58:24;2.00;;;2.00;;
5010;SDS011;2524;54.364;10.072;2024-01-11T11:00:54;1.80;;;1.80;;
5010;SDS011;2524;54.364;10.072;2024-01-11T11:03:20;1.70;;;1.70;;
5010;SDS011;2524;54.364;10.072;2024-01-11T11:05:54;2.20;;;2.10;;
5010;SDS011;2524;54.364;10.072;2024-01-11T11:08:21;2.00;;;2.00;;
5010;SDS011;2524;54.364;10.072;2024-01-11T11:10:49;4.63;;;2.00;;
5010;SDS011;2524;54.364;10.072;2024-01-11T11:13:19;1.60;;;1.60;;
5010;SDS011;2524;54.364;10.072;2024-01-11T11:15:46;1.90;;;1.90;;
5010;SDS011;2524;54.364;10.072;2024-01-11T11:18:13;1.77;;;1.77;;
5010;SDS011;2524;54.364;10.072;2024-01-11T11:20:40;1.93;;;1.83;;
5010;SDS011;2524;54.364;10.072;2024-01-11T11:23:09;1.73;;;1.73;;
5010;SDS011;2524;54.364;10.072;2024-01-11T11:25:36;1.80;;;1.80;;
5010;SDS011;2524;54.364;10.072;2024-01-11T11:28:02;1.67;;;1.67;;
5010;SDS011;2524;54.364;10.072;2024-01-11T11:30:39;1.70;;;1.70;;
5010;SDS011;2524;54.364;10.072;2024-01-11T11:33:24;2.40;;;2.30;;
5010;SDS011;2524;54.364;10.072;2024-01-11T11:35:54;2.60;;;2.40;;
5010;SDS011;2524;54.364;10.072;2024-01-11T11:38:24;2.03;;;2.03;;
5010;SDS011;2524;54.364;10.072;2024-01-11T11:40:55;1.90;;;1.90;;
5010;SDS011;2524;54.364;10.072;2024-01-11T11:43:23;1.63;;;1.63;;
5010;SDS011;2524;54.364;10.072;2024-01-11T11:45:50;1.30;;;1.30;;
5010;SDS011;2524;54.364;10.072;2024-01-11T11:51:01;1.30;;;1.30;;
5010;SDS011;2524;54.364;10.072;2024-01-11T11:53:34;1.87;;;1.77;;
5010;SDS011;2524;54.364;10.072;2024-01-11T11:56:01;2.33;;;2.23;;
5010;SDS011;2524;54.364;10.072;2024-01-11T11:58:27;3.30;;;3.10;;
5010;SDS011;2524;54.364;10.072;2024-01-11T12:00:54;3.00;;;2.80;;
5010;SDS011;2524;54.364;10.072;2024-01-11T12:03:23;3.83;;;3.57;;
5010;SDS011;2524;54.364;10.072;2024-01-11T12:05:55;3.07;;;2.77;;
5010;SDS011;2524;54.364;10.072;2024-01-11T12:08:22;2.60;;;2.50;;
5010;SDS011;2524;54.364;10.072;2024-01-11T12:10:48;2.90;;;2.80;;
5010;SDS011;2524;54.364;10.072;2024-01-11T12:13:13;4.20;;;3.27;;
5010;SDS011;2524;54.364;10.072;2024-01-11T12:15:40;3.40;;;3.20;;
5010;SDS011;2524;54.364;10.072;2024-01-11T12:18:06;3.60;;;3.30;;
5010;SDS011;2524;54.364;10.072;2024-01-11T12:20:32;2.37;;;2.20;;
5010;SDS011;2524;54.364;10.072;2024-01-11T12:22:58;2.10;;;2.00;;
5010;SDS011;2524;54.364;10.072;2024-01-11T12:25:24;2.47;;;2.13;;
5010;SDS011;2524;54.364;10.072;2024-01-11T12:27:50;2.07;;;1.97;;
5010;SDS011;2524;54.364;10.072;2024-01-11T12:30:16;2.37;;;2.20;;
5010;SDS011;2524;54.364;10.072;2024-01-11T12:32:43;2.50;;;2.40;;
5010;SDS011;2524;54.364;10.072;2024-01-11T12:35:09;4.53;;;3.00;;
5010;SDS011;2524;54.364;10.072;2024-01-11T12:37:35;3.23;;;2.90;;
5010;SDS011;2524;54.364;10.072;2024-01-11T12:40:01;2.40;;;2.30;;
5010;SDS011;2524;54.364;10.072;2024-01-11T12:42:28;2.30;;;2.20;;
5010;SDS011;2524;54.364;10.072;2024-01-11T12:44:54;2.37;;;2.17;;
5010;SDS011;2524;54.364;10.072;2024-01-11T12:47:20;2.53;;;2.37;;
5010;SDS011;2524;54.364;10.072;2024-01-11T12:49:46;2.23;;;2.13;;
5010;SDS011;2524;54.364;10.072;2024-01-11T12:52:16;1.73;;;1.63;;
5010;SDS011;2524;54.364;10.072;2024-01-11T12:54:42;2.20;;;1.97;;
5010;SDS011;2524;54.364;10.072;2024-01-11T12:57:11;3.27;;;1.70;;
5010;SDS011;2524;54.364;10.072;2024-01-11T12:59:37;2.40;;;2.30;;
5010;SDS011;2524;54.364;10.072;2024-01-11T13:02:04;3.40;;;2.20;;
5010;SDS011;2524;54.364;10.072;2024-01-11T13:04:31;2.93;;;2.37;;
5010;SDS011;2524;54.364;10.072;2024-01-11T13:06:56;2.87;;;2.57;;
5010;SDS011;2524;54.364;10.072;2024-01-11T13:09:22;3.13;;;2.90;;
5010;SDS011;2524;54.364;10.072;2024-01-11T13:11:48;3.03;;;2.67;;
5010;SDS011;2524;54.364;10.072;2024-01-11T13:14:14;2.53;;;1.93;;
5010;SDS011;2524;54.364;10.072;2024-01-11T13:16:44;4.23;;;2.90;;
5010;SDS011;2524;54.364;10.072;2024-01-11T13:19:10;2.10;;;2.00;;
5010;SDS011;2524;54.364;10.072;2024-01-11T13:21:36;3.10;;;2.63;;
5010;SDS011;2524;54.364;10.072;2024-01-11T13:24:02;2.47;;;2.30;;
5010;SDS011;2524;54.364;10.072;2024-01-11T13:26:28;2.30;;;2.20;;
5010;SDS011;2524;54.364;10.072;2024-01-11T13:28:54;2.70;;;2.50;;
5010;SDS011;2524;54.364;10.072;2024-01-11T13:31:20;6.87;;;3.50;;
5010;SDS011;2524;54.364;10.072;2024-01-11T13:33:46;6.47;;;4.70;;
5010;SDS011;2524;54.364;10.072;2024-01-11T13:36:11;8.87;;;5.20;;
5010;SDS011;2524;54.364;10.072;2024-01-11T13:38:37;9.90;;;5.57;;
5010;SDS011;2524;54.364;10.072;2024-01-11T13:41:03;7.73;;;5.37;;
5010;SDS011;2524;54.364;10.072;2024-01-11T13:43:30;10.50;;;6.47;;
5010;SDS011;2524;54.364;10.072;2024-01-11T13:45:55;11.03;;;5.63;;
5010;SDS011;2524;54.364;10.072;2024-01-11T13:48:21;10.60;;;5.73;;
5010;SDS011;2524;54.364;10.072;2024-01-11T13:50:47;12.63;;;5.63;;
5010;SDS011;2524;54.364;10.072;2024-01-11T13:53:12;12.00;;;5.50;;
5010;SDS011;2524;54.364;10.072;2024-01-11T13:55:38;8.47;;;5.43;;
5010;SDS011;2524;54.364;10.072;2024-01-11T13:58:04;7.43;;;4.23;;
5010;SDS011;2524;54.364;10.072;2024-01-11T14:00:30;7.33;;;5.03;;
5010;SDS011;2524;54.364;10.072;2024-01-11T14:02:56;8.67;;;4.93;;
5010;SDS011;2524;54.364;10.072;2024-01-11T14:05:21;14.60;;;6.20;;
5010;SDS011;2524;54.364;10.072;2024-01-11T14:07:47;11.50;;;5.20;;
5010;SDS011;2524;54.364;10.072;2024-01-11T14:10:13;6.30;;;4.37;;
5010;SDS011;2524;54.364;10.072;2024-01-11T14:12:40;6.33;;;4.30;;
5010;SDS011;2524;54.364;10.072;2024-01-11T14:15:06;7.40;;;3.97;;
5010;SDS011;2524;54.364;10.072;2024-01-11T14:17:36;5.00;;;4.50;;
5010;SDS011;2524;54.364;10.072;2024-01-11T14:20:02;4.43;;;3.97;;
5010;SDS011;2524;54.364;10.072;2024-01-11T14:22:28;3.47;;;3.00;;
5010;SDS011;2524;54.364;10.072;2024-01-11T14:24:54;3.07;;;2.80;;
5010;SDS011;2524;54.364;10.072;2024-01-11T14:27:20;2.20;;;2.10;;
5010;SDS011;2524;54.364;10.072;2024-01-11T14:29:46;3.00;;;2.77;;
5010;SDS011;2524;54.364;10.072;2024-01-11T14:32:13;2.23;;;2.13;;
5010;SDS011;2524;54.364;10.072;2024-01-11T14:34:41;2.20;;;2.10;;
5010;SDS011;2524;54.364;10.072;2024-01-11T14:37:10;2.00;;;2.00;;
5010;SDS011;2524;54.364;10.072;2024-01-11T14:39:37;2.03;;;1.80;;
5010;SDS011;2524;54.364;10.072;2024-01-11T14:42:02;1.90;;;1.80;;
5010;SDS011;2524;54.364;10.072;2024-01-11T14:44:28;2.63;;;2.20;;
5010;SDS011;2524;54.364;10.072;2024-01-11T14:46:54;1.90;;;1.80;;
5010;SDS011;2524;54.364;10.072;2024-01-11T14:49:20;2.03;;;1.93;;
5010;SDS011;2524;54.364;10.072;2024-01-11T14:51:47;1.80;;;1.80;;
5010;SDS011;2524;54.364;10.072;2024-01-11T14:54:12;1.93;;;1.83;;
5010;SDS011;2524;54.364;10.072;2024-01-11T14:56:38;2.33;;;2.13;;
5010;SDS011;2524;54.364;10.072;2024-01-11T14:59:03;1.50;;;1.50;;
5010;SDS011;2524;54.364;10.072;2024-01-11T15:01:29;1.50;;;1.40;;